Time;durP1;ratioP1;P1;durP2;ratioP2;P2;SDS_P1;SDS_P2;PMS_P1;PMS_P2;Temp;Humidity;BMP_temperature;BMP_pressure;BME280_temperature;BME280_humidity;BME280_pressure;Samples;Min_cycle;Max_cycle;Signal;HPM_P1;HPM_P2
2022/10/25 00:01:44;;;;;;;7.40;6.00;;;;;;;;;;105754;1296;22446;-30
2022/10/25 00:04:17;;;;;;;7.30;5.50;;;;;;;;;;105744;1300;22511;-30
2022/10/25 00:06:47;;;;;;;;;;;;;;;;;;105752;1294;25242;-30
2022/10/25 00:09:19;;;;;;;7.00;5.60;;;;;;;;;;105801;1295;22469;-30
2022/10/25 00:11:51;;;;;;;7.30;5.80;;;;;;;;;;105827;1299;22446;-30
2022/10/25 00:14:24;;;;;;;7.60;6.10;;;;;;;;;;105808;1285;22469;-30
2022/10/25 00:16:59;;;;;;;7.60;5.40;;;;;;;;;;105758;1291;22472;-30
2022/10/25 00:19:31;;;;;;;7.10;5.80;;;;;;;;;;105723;1301;22483;-30
2022/10/25 00:22:03;;;;;;;7.90;6.00;;;;;;;;;;105743;1292;22476;-30
2022/10/25 00:24:35;;;;;;;7.80;5.90;;;;;;;;;;105757;1301;22448;-30
2022/10/25 00:27:08;;;;;;;7.90;5.80;;;;;;;;;;105770;1295;23834;-30
2022/10/25 00:29:40;;;;;;;8.70;6.00;;;;;;;;;;105793;1288;23845;-30
2022/10/25 00:32:12;;;;;;;7.30;6.10;;;;;;;;;;105810;1292;22467;-30
2022/10/25 00:34:44;;;;;;;8.80;6.20;;;;;;;;;;105826;1295;22498;-30
2022/10/25 00:37:17;;;;;;;8.00;5.60;;;;;;;;;;105816;1294;22862;-30
2022/10/25 00:39:50;;;;;;;7.10;5.90;;;;;;;;;;105554;1288;22508;-30
2022/10/25 00:42:26;;;;;;;7.20;6.10;;;;;;;;;;105564;1289;22468;-30
2022/10/25 00:45:01;;;;;;;7.50;6.00;;;;;;;;;;105577;1295;22482;-30
2022/10/25 00:47:51;;;;;;;7.80;6.20;;;;;;;;;;105603;1295;22489;-30
2022/10/25 00:50:34;;;;;;;7.60;5.80;;;;;;;;;;105761;1301;25892;-30
2022/10/25 00:53:15;;;;;;;7.10;5.40;;;;;;;;;;105844;1294;22472;-30
2022/10/25 00:55:53;;;;;;;7.50;5.90;;;;;;;;;;105818;1280;22635;-30
2022/10/25 00:58:29;;;;;;;7.40;5.90;;;;;;;;;;105784;1289;22491;-30
2022/10/25 01:01:02;;;;;;;8.50;5.90;;;;;;;;;;105780;1295;22488;-30
2022/10/25 01:03:35;;;;;;;7.90;6.00;;;;;;;;;;105802;1297;22467;-30
2022/10/25 01:06:13;;;;;;;7.50;5.90;;;;;;;;;;105791;1289;22476;-30
2022/10/25 01:08:46;;;;;;;8.10;6.30;;;;;;;;;;105748;1285;23726;-30
2022/10/25 01:11:18;;;;;;;8.60;6.20;;;;;;;;;;105824;1288;22483;-30
2022/10/25 01:13:51;;;;;;;7.40;5.70;;;;;;;;;;105811;1282;23677;-30
2022/10/25 01:16:31;;;;;;;8.00;6.20;;;;;;;;;;105805;1287;23824;-30
2022/10/25 01:19:27;;;;;;;7.00;5.80;;;;;;;;;;105768;1292;22488;-30
2022/10/25 01:22:04;;;;;;;7.10;5.80;;;;;;;;;;105782;1292;22528;-30
2022/10/25 01:25:23;;;;;;;7.40;6.10;;;;;;;;;;105767;1294;22494;-30
2022/10/25 01:28:06;;;;;;;8.10;6.10;;;;;;;;;;105750;1295;22496;-30
2022/10/25 01:31:04;;;;;;;7.70;5.90;;;;;;;;;;105779;1288;22467;-30
2022/10/25 01:33:42;;;;;;;6.80;5.30;;;;;;;;;;105842;1285;22528;-30
2022/10/25 01:36:24;;;;;;;7.10;6.00;;;;;;;;;;105817;1289;22466;-30
2022/10/25 01:39:03;;;;;;;8.20;6.00;;;;;;;;;;105829;1294;22499;-30
2022/10/25 01:41:46;;;;;;;7.50;6.00;;;;;;;;;;105548;1296;23805;-30
2022/10/25 01:44:36;;;;;;;7.70;5.90;;;;;;;;;;105582;1288;22478;-30
2022/10/25 01:47:15;;;;;;;8.30;5.60;;;;;;;;;;105585;1291;25448;-30
2022/10/25 01:49:52;;;;;;;8.40;6.10;;;;;;;;;;105548;1299;22491;-30
2022/10/25 01:52:26;;;;;;;7.30;5.70;;;;;;;;;;105829;1284;25362;-30
2022/10/25 01:55:00;;;;;;;7.90;5.50;;;;;;;;;;105816;1300;22482;-30
2022/10/25 01:57:54;;;;;;;7.70;6.00;;;;;;;;;;105830;1285;22496;-30
2022/10/25 02:00:27;;;;;;;7.70;5.60;;;;;;;;;;105750;1289;22420;-30
2022/10/25 02:03:17;;;;;;;7.10;5.40;;;;;;;;;;105771;1290;22964;-30
2022/10/25 02:06:06;;;;;;;8.10;6.30;;;;;;;;;;105771;1289;25369;-30
2022/10/25 02:08:43;;;;;;;7.70;5.80;;;;;;;;;;105762;1295;22463;-30
2022/10/25 02:11:24;;;;;;;7.30;5.60;;;;;;;;;;105774;1286;22478;-30
2022/10/25 02:14:11;;;;;;;8.50;6.20;;;;;;;;;;105826;1295;22589;-30
2022/10/25 02:16:51;;;;;;;7.70;5.40;;;;;;;;;;105820;1279;22491;-30
2022/10/25 02:19:28;;;;;;;7.20;5.20;;;;;;;;;;105780;1284;22474;-30
2022/10/25 02:22:03;;;;;;;6.60;5.00;;;;;;;;;;105751;1295;25233;-30
2022/10/25 02:24:36;;;;;;;7.00;5.40;;;;;;;;;;105767;1298;22474;-30
2022/10/25 02:27:11;;;;;;;8.20;5.60;;;;;;;;;;105742;1289;23763;-30
2022/10/25 02:29:44;;;;;;;7.40;5.50;;;;;;;;;;105772;1289;22508;-30
2022/10/25 02:32:14;;;;;;;;;;;;;;;;;;105803;1294;22440;-30
2022/10/25 02:34:51;;;;;;;7.20;5.50;;;;;;;;;;105833;1285;22479;-30
2022/10/25 02:37:27;;;;;;;6.80;5.20;;;;;;;;;;105811;1284;22491;-30
2022/10/25 02:39:59;;;;;;;6.70;5.40;;;;;;;;;;105610;1280;22476;-30
2022/10/25 02:42:34;;;;;;;7.20;5.90;;;;;;;;;;105712;1279;22480;-30
2022/10/25 02:45:08;;;;;;;7.80;5.70;;;;;;;;;;105782;1300;25360;-30
2022/10/25 02:47:40;;;;;;;6.60;5.30;;;;;;;;;;105750;1289;22528;-30
2022/10/25 02:50:13;;;;;;;6.50;5.30;;;;;;;;;;105768;1282;22492;-30
2022/10/25 02:52:45;;;;;;;7.00;5.50;;;;;;;;;;105759;1294;25361;-30
2022/10/25 02:55:17;;;;;;;7.10;5.30;;;;;;;;;;105815;1299;22462;-30
2022/10/25 02:57:49;;;;;;;7.00;5.20;;;;;;;;;;105816;1297;22453;-30
2022/10/25 03:00:23;;;;;;;8.00;5.40;;;;;;;;;;105820;1280;25831;-30
2022/10/25 03:02:55;;;;;;;6.50;4.90;;;;;;;;;;105731;1297;22463;-30
2022/10/25 03:05:27;;;;;;;7.30;5.60;;;;;;;;;;105775;1295;22851;-30
2022/10/25 03:07:59;;;;;;;6.90;5.30;;;;;;;;;;105779;1298;22533;-30
2022/10/25 03:10:36;;;;;;;6.70;5.00;;;;;;;;;;105736;1289;22457;-30
2022/10/25 03:13:08;;;;;;;7.40;4.90;;;;;;;;;;105775;1294;22492;-30
2022/10/25 03:15:40;;;;;;;7.20;5.20;;;;;;;;;;105824;1294;22475;-30
2022/10/25 03:18:13;;;;;;;6.70;5.10;;;;;;;;;;105840;1295;22465;-30
2022/10/25 03:20:46;;;;;;;7.10;5.20;;;;;;;;;;105835;1285;23908;-30
2022/10/25 03:23:17;;;;;;;;;;;;;;;;;;105775;1289;22447;-30
2022/10/25 03:25:52;;;;;;;6.70;5.20;;;;;;;;;;105759;1298;22521;-30
2022/10/25 03:28:26;;;;;;;7.10;5.00;;;;;;;;;;105798;1283;22553;-30
2022/10/25 03:30:59;;;;;;;6.80;4.90;;;;;;;;;;105759;1295;22472;-30
2022/10/25 03:33:34;;;;;;;7.50;5.00;;;;;;;;;;105798;1289;22458;-30
2022/10/25 03:36:07;;;;;;;7.00;5.30;;;;;;;;;;105810;1293;22479;-30
2022/10/25 03:38:40;;;;;;;6.50;5.00;;;;;;;;;;105829;1295;22743;-30
2022/10/25 03:41:12;;;;;;;7.50;5.10;;;;;;;;;;105829;1292;22455;-30
2022/10/25 03:43:44;;;;;;;7.10;5.10;;;;;;;;;;105769;1299;25325;-30
2022/10/25 03:46:16;;;;;;;6.70;5.20;;;;;;;;;;105761;1288;22717;-30
2022/10/25 03:48:48;;;;;;;6.50;5.00;;;;;;;;;;105739;1287;25381;-30
2022/10/25 03:51:20;;;;;;;6.40;5.10;;;;;;;;;;105721;1295;22495;-30
2022/10/25 03:53:52;;;;;;;7.00;4.90;;;;;;;;;;105778;1283;22483;-30
2022/10/25 03:56:24;;;;;;;6.80;5.10;;;;;;;;;;105845;1294;21655;-30
2022/10/25 03:58:56;;;;;;;6.50;5.10;;;;;;;;;;105825;1296;22494;-30
2022/10/25 04:01:28;;;;;;;7.20;5.30;;;;;;;;;;105821;1279;22398;-30
2022/10/25 04:04:00;;;;;;;7.90;5.70;;;;;;;;;;105760;1295;22484;-30
2022/10/25 04:06:35;;;;;;;7.30;5.10;;;;;;;;;;105780;1286;22984;-30
2022/10/25 04:09:09;;;;;;;6.80;5.00;;;;;;;;;;105752;1288;23751;-30
2022/10/25 04:11:42;;;;;;;6.50;5.10;;;;;;;;;;105759;1279;22491;-30
2022/10/25 04:14:14;;;;;;;7.10;4.80;;;;;;;;;;105784;1295;22459;-30
2022/10/25 04:16:45;;;;;;;6.70;4.90;;;;;;;;;;105823;1286;22733;-30
2022/10/25 04:19:18;;;;;;;7.10;4.90;;;;;;;;;;105817;1294;22478;-30
2022/10/25 04:21:50;;;;;;;6.70;4.80;;;;;;;;;;105839;1288;24572;-30
2022/10/25 04:24:22;;;;;;;7.20;4.80;;;;;;;;;;105755;1292;22476;-30
2022/10/25 04:26:54;;;;;;;7.60;5.40;;;;;;;;;;105749;1286;22696;-30
2022/10/25 04:29:27;;;;;;;6.60;5.00;;;;;;;;;;105759;1280;22552;-30
2022/10/25 04:31:59;;;;;;;7.10;4.90;;;;;;;;;;105786;1286;22491;-30
2022/10/25 04:34:31;;;;;;;7.80;5.00;;;;;;;;;;105754;1294;22457;-30
2022/10/25 04:37:04;;;;;;;6.40;4.90;;;;;;;;;;105797;1287;22477;-30
2022/10/25 04:40:01;;;;;;;7.50;5.10;;;;;;;;;;105813;1287;25847;-30
2022/10/25 04:42:35;;;;;;;7.10;5.30;;;;;;;;;;105819;1295;22461;-30
2022/10/25 04:45:10;;;;;;;8.00;5.20;;;;;;;;;;105751;1294;22489;-30
2022/10/25 04:47:41;;;;;;;7.40;5.00;;;;;;;;;;105782;1288;25898;-30
2022/10/25 04:50:14;;;;;;;6.90;5.30;;;;;;;;;;105739;1281;22565;-30
2022/10/25 04:52:46;;;;;;;7.30;5.40;;;;;;;;;;105785;1299;22435;-30
2022/10/25 04:55:20;;;;;;;6.80;5.10;;;;;;;;;;105775;1289;22475;-30
2022/10/25 04:57:54;;;;;;;7.80;5.40;;;;;;;;;;105833;1295;22478;-30
2022/10/25 05:00:26;;;;;;;7.40;5.00;;;;;;;;;;105812;1294;22460;-30
2022/10/25 05:02:58;;;;;;;7.80;5.60;;;;;;;;;;105818;1294;22493;-30
2022/10/25 05:05:31;;;;;;;8.70;5.60;;;;;;;;;;105728;1279;22442;-30
2022/10/25 05:08:03;;;;;;;7.70;5.30;;;;;;;;;;105814;1286;22671;-30
2022/10/25 05:10:36;;;;;;;7.90;5.30;;;;;;;;;;105779;1298;25319;-30
2022/10/25 05:13:07;;;;;;;6.50;5.00;;;;;;;;;;105767;1282;22504;-30
2022/10/25 05:15:40;;;;;;;8.80;5.70;;;;;;;;;;105792;1294;22467;-30
2022/10/25 05:18:12;;;;;;;7.10;4.80;;;;;;;;;;105829;1295;22530;-30
2022/10/25 05:20:43;;;;;;;7.90;5.30;;;;;;;;;;105817;1286;22532;-30
2022/10/25 05:23:15;;;;;;;8.30;5.50;;;;;;;;;;105830;1279;22483;-30
2022/10/25 05:25:48;;;;;;;7.90;5.50;;;;;;;;;;105713;1295;22473;-30
2022/10/25 05:28:20;;;;;;;8.00;5.30;;;;;;;;;;105787;1294;22707;-30
2022/10/25 05:30:52;;;;;;;8.30;5.70;;;;;;;;;;105780;1280;25188;-30
2022/10/25 05:33:24;;;;;;;8.20;5.20;;;;;;;;;;105785;1279;22429;-30
2022/10/25 05:35:56;;;;;;;9.40;5.70;;;;;;;;;;105787;1295;22505;-30
2022/10/25 05:38:28;;;;;;;10.20;5.50;;;;;;;;;;105830;1289;22530;-30
2022/10/25 05:41:01;;;;;;;7.10;5.10;;;;;;;;;;105815;1295;22440;-30
2022/10/25 05:43:34;;;;;;;7.50;5.10;;;;;;;;;;105827;1294;23872;-30
2022/10/25 05:46:09;;;;;;;7.80;5.20;;;;;;;;;;105726;1289;22602;-30
2022/10/25 05:48:42;;;;;;;6.80;4.90;;;;;;;;;;105753;1294;22468;-30
2022/10/25 05:51:20;;;;;;;7.60;5.60;;;;;;;;;;105748;1278;22550;-30
2022/10/25 05:53:54;;;;;;;7.60;5.30;;;;;;;;;;105761;1286;22771;-30
2022/10/25 05:56:29;;;;;;;7.60;5.50;;;;;;;;;;105774;1273;22557;-30
2022/10/25 05:59:08;;;;;;;7.70;5.00;;;;;;;;;;105852;1286;22495;-30
2022/10/25 06:01:43;;;;;;;7.10;5.20;;;;;;;;;;105807;1295;22491;-30
2022/10/25 06:04:18;;;;;;;7.80;5.60;;;;;;;;;;105815;1295;22475;-30
2022/10/25 06:06:51;;;;;;;7.40;5.30;;;;;;;;;;105573;1287;22479;-30
2022/10/25 06:09:23;;;;;;;8.00;5.50;;;;;;;;;;105589;1295;22503;-30
2022/10/25 06:11:55;;;;;;;7.10;5.30;;;;;;;;;;105590;1298;25272;-30
2022/10/25 06:14:29;;;;;;;6.90;5.20;;;;;;;;;;105573;1288;22630;-30
2022/10/25 06:17:01;;;;;;;8.50;5.60;;;;;;;;;;105793;1292;22460;-30
2022/10/25 06:19:33;;;;;;;7.60;5.10;;;;;;;;;;105832;1295;22472;-30
2022/10/25 06:22:05;;;;;;;7.00;5.10;;;;;;;;;;105845;1279;22464;-30
2022/10/25 06:24:37;;;;;;;8.00;5.60;;;;;;;;;;105821;1292;22544;-30
2022/10/25 06:27:11;;;;;;;7.90;5.30;;;;;;;;;;105732;1288;22475;-30
2022/10/25 06:29:43;;;;;;;7.00;5.30;;;;;;;;;;105754;1301;22479;-30
2022/10/25 06:32:15;;;;;;;6.90;4.80;;;;;;;;;;105772;1286;22515;-30
2022/10/25 06:34:47;;;;;;;7.40;5.30;;;;;;;;;;105751;1286;22489;-31
2022/10/25 06:37:19;;;;;;;8.90;5.60;;;;;;;;;;105784;1294;22479;-31
2022/10/25 06:39:51;;;;;;;7.30;5.40;;;;;;;;;;105524;1296;336771;-31
2022/10/25 06:42:23;;;;;;;7.70;5.30;;;;;;;;;;105799;1273;24211;-31
2022/10/25 06:44:55;;;;;;;8.20;5.20;;;;;;;;;;105804;1295;22468;-31
2022/10/25 06:47:27;;;;;;;7.50;5.30;;;;;;;;;;105681;1279;23713;-31
2022/10/25 06:49:59;;;;;;;8.70;5.40;;;;;;;;;;105751;1298;22445;-31
2022/10/25 06:52:32;;;;;;;8.20;5.50;;;;;;;;;;105762;1289;23857;-31
2022/10/25 06:55:04;;;;;;;7.50;5.50;;;;;;;;;;105730;1289;22474;-31
2022/10/25 06:57:36;;;;;;;8.10;5.70;;;;;;;;;;105793;1300;22452;-31
2022/10/25 07:00:12;;;;;;;8.60;5.60;;;;;;;;;;105831;1286;22464;-31
2022/10/25 07:02:46;;;;;;;8.50;5.50;;;;;;;;;;105840;1286;22499;-31
2022/10/25 07:05:18;;;;;;;8.10;5.60;;;;;;;;;;105797;1294;22488;-31
2022/10/25 07:07:51;;;;;;;7.40;5.50;;;;;;;;;;105726;1280;22704;-31
2022/10/25 07:10:23;;;;;;;7.90;5.60;;;;;;;;;;105765;1294;22536;-31
2022/10/25 07:12:55;;;;;;;7.70;5.50;;;;;;;;;;105732;1289;23900;-31
2022/10/25 07:15:26;;;;;;;7.40;5.40;;;;;;;;;;105729;1302;22778;-31
2022/10/25 07:17:59;;;;;;;7.90;5.40;;;;;;;;;;105765;1291;25267;-31
2022/10/25 07:20:30;;;;;;;7.50;5.40;;;;;;;;;;105804;1295;22496;-31
2022/10/25 07:23:03;;;;;;;8.70;5.40;;;;;;;;;;105803;1295;22492;-31
2022/10/25 07:25:37;;;;;;;8.20;5.90;;;;;;;;;;105847;1294;22478;-31
2022/10/25 07:28:11;;;;;;;10.30;6.20;;;;;;;;;;105693;1286;22456;-31
2022/10/25 07:30:52;;;;;;;7.70;5.50;;;;;;;;;;105714;1272;22485;-31
2022/10/25 07:33:24;;;;;;;8.10;5.60;;;;;;;;;;105662;1278;22546;-33
2022/10/25 07:35:57;;;;;;;8.10;5.20;;;;;;;;;;105497;1282;23831;-32
2022/10/25 07:38:30;;;;;;;9.40;6.00;;;;;;;;;;105472;1298;22488;-33
2022/10/25 07:41:07;;;;;;;8.70;5.60;;;;;;;;;;105503;1301;22485;-31
2022/10/25 07:43:40;;;;;;;8.60;5.50;;;;;;;;;;105475;1291;22484;-32
2022/10/25 07:46:12;;;;;;;8.70;6.00;;;;;;;;;;105524;1292;23808;-32
2022/10/25 07:48:44;;;;;;;8.00;5.50;;;;;;;;;;105436;1298;22486;-32
2022/10/25 07:51:18;;;;;;;8.80;5.50;;;;;;;;;;105522;1275;22519;-33
2022/10/25 07:53:50;;;;;;;9.70;5.90;;;;;;;;;;105493;1291;25272;-33
2022/10/25 07:56:22;;;;;;;8.40;5.20;;;;;;;;;;105498;1281;22715;-33
2022/10/25 07:58:55;;;;;;;8.30;5.40;;;;;;;;;;105501;1298;22468;-34
2022/10/25 08:01:29;;;;;;;9.00;5.70;;;;;;;;;;105541;1292;22524;-34
2022/10/25 08:04:04;;;;;;;7.80;5.00;;;;;;;;;;105520;1291;22475;-33
2022/10/25 08:06:36;;;;;;;7.50;5.30;;;;;;;;;;105487;1294;22461;-33
2022/10/25 08:09:08;;;;;;;9.10;5.60;;;;;;;;;;105481;1282;22504;-32
2022/10/25 08:11:40;;;;;;;7.90;5.40;;;;;;;;;;105551;1297;23897;-32
2022/10/25 08:14:12;;;;;;;6.80;4.80;;;;;;;;;;105529;1297;22482;-32
2022/10/25 08:16:44;;;;;;;10.70;5.20;;;;;;;;;;105485;1281;22469;-30
2022/10/25 08:19:16;;;;;;;7.60;5.30;;;;;;;;;;105466;1288;22510;-30
2022/10/25 08:21:49;;;;;;;7.60;4.80;;;;;;;;;;105515;1299;23951;-31
2022/10/25 08:24:21;;;;;;;6.80;5.00;;;;;;;;;;105538;1291;22506;-30
2022/10/25 08:26:56;;;;;;;7.10;4.60;;;;;;;;;;105521;1281;25448;-30
2022/10/25 08:29:30;;;;;;;7.20;4.90;;;;;;;;;;105499;1298;22490;-30
2022/10/25 08:32:04;;;;;;;8.80;4.90;;;;;;;;;;105517;1304;22602;-30
2022/10/25 08:34:36;;;;;;;8.70;5.30;;;;;;;;;;105398;1297;22484;-30
2022/10/25 08:37:08;;;;;;;7.40;5.20;;;;;;;;;;105495;1297;22773;-30
2022/10/25 08:39:40;;;;;;;7.20;5.20;;;;;;;;;;105487;1296;22471;-30
2022/10/25 08:42:25;;;;;;;7.40;4.70;;;;;;;;;;105500;1298;22488;-30
2022/10/25 08:45:04;;;;;;;8.50;5.10;;;;;;;;;;105482;1291;22482;-30
2022/10/25 08:47:40;;;;;;;8.30;4.90;;;;;;;;;;105515;1301;25246;-30
2022/10/25 08:50:20;;;;;;;6.60;4.60;;;;;;;;;;105634;1294;22527;-30
2022/10/25 08:52:55;;;;;;;7.30;4.90;;;;;;;;;;105532;1291;22492;-30
2022/10/25 08:55:34;;;;;;;7.00;5.10;;;;;;;;;;105539;1291;22510;-30
2022/10/25 08:58:14;;;;;;;8.20;5.50;;;;;;;;;;105517;1282;22509;-30
2022/10/25 09:00:49;;;;;;;7.40;4.50;;;;;;;;;;105492;1292;23652;-30
2022/10/25 09:03:25;;;;;;;6.90;4.50;;;;;;;;;;105519;1297;22686;-30
2022/10/25 09:06:19;;;;;;;6.50;4.90;;;;;;;;;;105509;1282;25213;-31
2022/10/25 09:09:05;;;;;;;7.30;4.90;;;;;;;;;;105501;1289;22557;-30
2022/10/25 09:11:55;;;;;;;7.70;5.00;;;;;;;;;;105539;1289;25828;-30
2022/10/25 09:14:43;;;;;;;7.90;4.90;;;;;;;;;;105525;1294;22505;-31
2022/10/25 09:17:23;;;;;;;7.30;4.80;;;;;;;;;;105484;1298;22478;-30
2022/10/25 09:20:07;;;;;;;6.90;4.40;;;;;;;;;;105473;1272;22483;-30
2022/10/25 09:22:49;;;;;;;6.90;4.80;;;;;;;;;;105556;1282;25356;-30
2022/10/25 09:25:28;;;;;;;7.50;4.50;;;;;;;;;;105532;1297;25198;-30
2022/10/25 09:28:06;;;;;;;6.00;4.60;;;;;;;;;;105506;1297;22478;-30
2022/10/25 09:30:44;;;;;;;7.70;5.00;;;;;;;;;;105502;1290;22471;-30
2022/10/25 09:33:20;;;;;;;7.90;4.60;;;;;;;;;;105505;1282;22668;-30
2022/10/25 09:35:56;;;;;;;6.40;4.60;;;;;;;;;;105547;1289;22483;-30
2022/10/25 09:38:38;;;;;;;7.70;5.20;;;;;;;;;;105533;1297;22529;-30
2022/10/25 09:41:17;;;;;;;7.00;4.50;;;;;;;;;;105511;1276;25947;-30
2022/10/25 09:43:57;;;;;;;6.20;4.70;;;;;;;;;;105519;1297;22659;-30
2022/10/25 09:46:35;;;;;;;6.80;5.00;;;;;;;;;;105490;1296;22661;-30
2022/10/25 09:49:20;;;;;;;7.10;4.80;;;;;;;;;;105529;1297;22465;-30
2022/10/25 09:52:00;;;;;;;7.30;4.80;;;;;;;;;;105482;1282;22485;-30
2022/10/25 09:54:41;;;;;;;6.60;4.80;;;;;;;;;;105512;1294;22511;-30
2022/10/25 09:57:14;;;;;;;7.50;4.80;;;;;;;;;;105543;1297;22485;-30
2022/10/25 09:59:51;;;;;;;6.20;4.80;;;;;;;;;;105536;1288;22602;-30
2022/10/25 10:02:26;;;;;;;8.10;4.90;;;;;;;;;;105547;1296;22499;-30
2022/10/25 10:04:58;;;;;;;7.00;4.80;;;;;;;;;;105525;1294;22480;-30
2022/10/25 10:07:35;;;;;;;6.40;4.60;;;;;;;;;;105512;1289;22471;-30
2022/10/25 10:10:13;;;;;;;6.50;4.90;;;;;;;;;;105486;1290;25252;-30
2022/10/25 10:12:52;;;;;;;6.20;4.60;;;;;;;;;;105506;1298;22468;-30
2022/10/25 10:15:30;;;;;;;6.80;5.10;;;;;;;;;;105546;1296;22568;-30
2022/10/25 10:18:30;;;;;;;6.20;4.60;;;;;;;;;;105514;1296;22531;-30
2022/10/25 10:21:19;;;;;;;5.80;5.10;;;;;;;;;;105459;1292;22474;-30
2022/10/25 10:23:55;;;;;;;6.60;4.50;;;;;;;;;;105566;1297;22605;-30
2022/10/25 10:26:35;;;;;;;7.00;5.00;;;;;;;;;;105525;1297;22495;-30
2022/10/25 10:29:16;;;;;;;6.30;4.70;;;;;;;;;;105526;1289;23369;-30
2022/10/25 10:31:53;;;;;;;6.40;4.50;;;;;;;;;;105500;1296;22758;-30
2022/10/25 10:34:29;;;;;;;6.20;4.90;;;;;;;;;;105515;1297;25860;-30
2022/10/25 10:37:15;;;;;;;6.90;4.90;;;;;;;;;;105544;1282;22508;-30
2022/10/25 10:39:56;;;;;;;6.20;4.80;;;;;;;;;;105533;1297;25243;-32
2022/10/25 10:42:36;;;;;;;6.80;4.90;;;;;;;;;;105499;1297;22491;-33
2022/10/25 10:45:22;;;;;;;5.90;4.50;;;;;;;;;;105515;1294;25249;-33
2022/10/25 10:48:00;;;;;;;6.10;4.80;;;;;;;;;;105555;1282;23977;-33
2022/10/25 10:50:34;;;;;;;6.30;4.90;;;;;;;;;;105533;1298;22479;-30
2022/10/25 10:53:13;;;;;;;6.50;5.00;;;;;;;;;;105510;1298;23797;-30
2022/10/25 10:55:53;;;;;;;6.60;5.20;;;;;;;;;;105507;1297;25395;-30
2022/10/25 10:58:29;;;;;;;5.80;4.70;;;;;;;;;;105540;1289;22465;-30
2022/10/25 11:01:04;;;;;;;6.30;4.90;;;;;;;;;;105511;1281;22475;-30
2022/10/25 11:03:55;;;;;;;7.10;5.00;;;;;;;;;;105623;1297;22474;-30
2022/10/25 11:06:30;;;;;;;6.00;5.10;;;;;;;;;;105527;1297;23795;-33
2022/10/25 11:09:18;;;;;;;6.40;4.90;;;;;;;;;;105516;1282;22488;-33
2022/10/25 11:12:11;;;;;;;5.40;4.50;;;;;;;;;;105524;1297;22573;-33
2022/10/25 11:14:44;;;;;;;6.40;5.00;;;;;;;;;;105538;1290;22517;-33
2022/10/25 11:17:22;;;;;;;5.90;4.60;;;;;;;;;;105501;1296;22492;-33
2022/10/25 11:20:12;;;;;;;6.20;4.50;;;;;;;;;;105514;1297;22557;-33
2022/10/25 11:22:58;;;;;;;6.10;4.60;;;;;;;;;;105512;1297;22474;-33
2022/10/25 11:25:39;;;;;;;6.30;4.70;;;;;;;;;;105514;1290;25249;-33
2022/10/25 11:28:45;;;;;;;6.50;4.50;;;;;;;;;;105519;1296;22490;-33
2022/10/25 11:31:31;;;;;;;5.60;4.40;;;;;;;;;;105553;1291;22468;-33
2022/10/25 11:34:19;;;;;;;6.40;4.70;;;;;;;;;;105504;1298;22478;-33
2022/10/25 11:37:08;;;;;;;5.90;4.50;;;;;;;;;;105546;1297;24230;-30
2022/10/25 11:39:55;;;;;;;6.00;4.60;;;;;;;;;;105515;1284;25365;-30
2022/10/25 11:42:46;;;;;;;6.50;4.70;;;;;;;;;;105482;1298;22556;-30
2022/10/25 11:45:39;;;;;;;6.30;4.50;;;;;;;;;;105515;1290;22624;-30
2022/10/25 11:48:55;;;;;;;6.80;4.60;;;;;;;;;;105533;1296;22471;-30
2022/10/25 11:51:42;;;;;;;5.50;4.40;;;;;;;;;;105532;1291;22467;-33
2022/10/25 11:54:44;;;;;;;5.60;4.30;;;;;;;;;;105482;1288;22525;-33
2022/10/25 11:57:32;;;;;;;6.30;4.30;;;;;;;;;;105537;1300;22472;-33
2022/10/25 12:00:14;;;;;;;6.40;4.30;;;;;;;;;;105536;1297;22499;-30
2022/10/25 12:03:12;;;;;;;6.60;4.60;;;;;;;;;;105497;1297;22510;-30
2022/10/25 12:05:53;;;;;;;6.20;4.30;;;;;;;;;;105525;1268;22607;-30
2022/10/25 12:08:37;;;;;;;6.50;4.50;;;;;;;;;;105534;1297;22522;-30
2022/10/25 12:11:16;;;;;;;5.90;4.40;;;;;;;;;;105511;1297;22491;-30
2022/10/25 12:13:53;;;;;;;5.90;4.60;;;;;;;;;;105506;1282;22540;-30
2022/10/25 12:16:26;;;;;;;6.10;4.50;;;;;;;;;;105515;1300;22471;-30
2022/10/25 12:19:08;;;;;;;6.80;4.70;;;;;;;;;;105490;1296;22494;-30
2022/10/25 12:21:50;;;;;;;6.40;4.60;;;;;;;;;;105546;1297;23188;-30
2022/10/25 12:24:26;;;;;;;5.40;4.30;;;;;;;;;;105505;1297;22636;-30
2022/10/25 12:26:59;;;;;;;6.60;4.60;;;;;;;;;;105555;1292;22469;-30
2022/10/25 12:29:39;;;;;;;5.90;4.50;;;;;;;;;;105499;1298;22483;-30
2022/10/25 12:32:19;;;;;;;6.70;4.30;;;;;;;;;;105524;1291;22517;-30
2022/10/25 12:34:54;;;;;;;6.70;5.10;;;;;;;;;;105492;1285;24357;-30
2022/10/25 12:37:34;;;;;;;5.40;4.20;;;;;;;;;;105523;1298;23858;-30
2022/10/25 12:40:13;;;;;;;5.90;4.50;;;;;;;;;;105509;1289;22542;-30
2022/10/25 12:42:49;;;;;;;5.80;4.20;;;;;;;;;;105562;1291;22488;-30
2022/10/25 12:45:59;;;;;;;5.10;4.20;;;;;;;;;;105485;1291;22560;-30
2022/10/25 12:48:59;;;;;;;6.00;4.40;;;;;;;;;;105537;1297;22544;-30
2022/10/25 12:51:48;;;;;;;6.30;4.30;;;;;;;;;;105478;1292;22497;-30
2022/10/25 12:54:45;;;;;;;5.80;4.30;;;;;;;;;;105712;1273;25259;-33
2022/10/25 12:57:30;;;;;;;5.60;4.50;;;;;;;;;;105511;1282;22751;-33
2022/10/25 13:00:16;;;;;;;6.10;4.50;;;;;;;;;;105470;1291;22478;-31
2022/10/25 13:03:33;;;;;;;5.40;4.20;;;;;;;;;;105404;1282;22489;-32
2022/10/25 13:06:33;;;;;;;5.80;3.90;;;;;;;;;;105335;1300;22681;-34
2022/10/25 13:09:10;;;;;;;6.00;4.60;;;;;;;;;;105503;1288;22497;-33
2022/10/25 13:11:48;;;;;;;5.60;4.10;;;;;;;;;;105435;1297;22478;-33
2022/10/25 13:14:28;;;;;;;5.10;3.90;;;;;;;;;;105415;1292;22876;-32
2022/10/25 13:17:57;;;;;;;5.90;4.40;;;;;;;;;;105478;1282;22439;-36
2022/10/25 13:20:52;;;;;;;5.30;4.00;;;;;;;;;;105495;1301;25381;-37
2022/10/25 13:23:59;;;;;;;5.80;4.30;;;;;;;;;;105462;1287;22828;-34
2022/10/25 13:27:11;;;;;;;5.00;4.20;;;;;;;;;;105453;1288;22486;-35
2022/10/25 13:30:19;;;;;;;6.40;4.00;;;;;;;;;;105332;1282;23788;-35
2022/10/25 13:33:39;;;;;;;6.20;4.10;;;;;;;;;;105315;1290;22475;-36
2022/10/25 13:36:13;;;;;;;5.70;4.30;;;;;;;;;;105390;1292;22485;-36
2022/10/25 13:38:45;;;;;;;5.90;4.10;;;;;;;;;;105488;1275;25535;-36
2022/10/25 13:41:20;;;;;;;5.10;4.30;;;;;;;;;;105482;1288;22709;-33
2022/10/25 13:44:05;;;;;;;5.70;4.10;;;;;;;;;;105468;1297;22482;-34
2022/10/25 13:46:40;;;;;;;5.70;4.30;;;;;;;;;;105407;1289;22658;-33
2022/10/25 13:49:36;;;;;;;6.20;3.90;;;;;;;;;;105397;1301;22522;-37
2022/10/25 13:52:25;;;;;;;5.50;4.30;;;;;;;;;;105438;1294;22626;-34
2022/10/25 13:55:01;;;;;;;5.50;4.20;;;;;;;;;;105366;1291;22708;-34
2022/10/25 13:57:55;;;;;;;5.80;4.40;;;;;;;;;;105464;1296;22622;-34
2022/10/25 14:00:42;;;;;;;5.10;3.80;;;;;;;;;;105471;1289;22468;-34
2022/10/25 14:03:36;;;;;;;5.60;4.10;;;;;;;;;;105442;1282;22482;-30
2022/10/25 14:06:35;;;;;;;5.30;4.00;;;;;;;;;;105499;1295;24907;-30
2022/10/25 14:09:24;;;;;;;5.00;3.70;;;;;;;;;;105482;1286;22440;-29
2022/10/25 14:12:15;;;;;;;6.60;4.00;;;;;;;;;;105501;1298;22499;-29
2022/10/25 14:15:02;;;;;;;6.30;4.20;;;;;;;;;;105488;1284;22520;-29
2022/10/25 14:17:42;;;;;;;5.40;3.80;;;;;;;;;;105494;1297;22506;-29
2022/10/25 14:20:31;;;;;;;5.40;4.10;;;;;;;;;;105561;1297;22602;-29
2022/10/25 14:23:06;;;;;;;5.30;4.00;;;;;;;;;;105504;1301;22478;-30
2022/10/25 14:25:41;;;;;;;6.40;5.00;;;;;;;;;;105461;1275;25202;-29
2022/10/25 14:28:23;;;;;;;5.70;4.70;;;;;;;;;;105488;1298;22589;-29
2022/10/25 14:30:58;;;;;;;6.30;5.00;;;;;;;;;;105533;1283;25361;-29
2022/10/25 14:33:34;;;;;;;6.50;4.50;;;;;;;;;;105487;1281;22478;-29
2022/10/25 14:36:28;;;;;;;5.30;4.30;;;;;;;;;;105490;1294;22479;-29
2022/10/25 14:39:02;;;;;;;5.20;4.10;;;;;;;;;;105268;1301;314506;-29
2022/10/25 14:41:37;;;;;;;5.10;4.10;;;;;;;;;;105559;1297;23096;-29
2022/10/25 14:44:26;;;;;;;6.70;4.30;;;;;;;;;;105534;1289;25461;-29
2022/10/25 14:47:00;;;;;;;5.40;4.40;;;;;;;;;;105502;1297;22481;-29
2022/10/25 14:49:35;;;;;;;6.20;4.20;;;;;;;;;;105478;1291;22602;-29
2022/10/25 14:52:09;;;;;;;7.00;4.40;;;;;;;;;;105502;1291;22471;-29
2022/10/25 14:54:43;;;;;;;6.10;4.20;;;;;;;;;;105489;1292;24004;-29
2022/10/25 14:57:16;;;;;;;6.80;4.30;;;;;;;;;;105489;1296;25194;-29
2022/10/25 14:59:54;;;;;;;5.90;4.00;;;;;;;;;;105513;1298;22485;-29
2022/10/25 15:02:31;;;;;;;5.20;4.00;;;;;;;;;;105519;1291;23862;-29
2022/10/25 15:05:07;;;;;;;5.90;4.20;;;;;;;;;;105512;1288;22538;-29
2022/10/25 15:07:45;;;;;;;5.50;4.10;;;;;;;;;;105518;1282;24634;-29
2022/10/25 15:10:40;;;;;;;5.50;4.00;;;;;;;;;;105521;1297;22452;-29
2022/10/25 15:13:26;;;;;;;5.40;4.00;;;;;;;;;;105527;1297;22476;-29
2022/10/25 15:16:03;;;;;;;5.50;3.90;;;;;;;;;;105522;1290;24574;-29
2022/10/25 15:18:40;;;;;;;5.00;3.80;;;;;;;;;;105484;1303;22512;-29
2022/10/25 15:21:17;;;;;;;6.00;3.90;;;;;;;;;;105535;1289;22492;-29
2022/10/25 15:24:15;;;;;;;5.30;4.00;;;;;;;;;;105531;1285;25405;-31
2022/10/25 15:27:02;;;;;;;6.00;4.20;;;;;;;;;;105500;1291;22499;-31
2022/10/25 15:29:48;;;;;;;4.90;3.80;;;;;;;;;;105521;1300;22767;-31
2022/10/25 15:32:23;;;;;;;6.10;4.30;;;;;;;;;;105548;1289;22477;-31
2022/10/25 15:34:58;;;;;;;5.50;4.10;;;;;;;;;;105508;1297;25222;-31
2022/10/25 15:37:32;;;;;;;5.00;3.80;;;;;;;;;;105510;1297;25367;-31